Time,TemperatureF,DewpointF,PressureIn,WindDirection,WindDirectionDegrees,WindSpeedMPH,WindSpeedGustMPH,Humidity,HourlyPrecipIn,Conditions,Clouds,dailyrainin,SoftwareType,DateUTC
2017-01-24 00:07:00,53.0,48.0,29.87,North,9,0.0,1.0,83,-99.99,,,-99.99,,2017-01-24 06:07:00,
2017-01-24 00:16:00,53.0,48.0,29.87,North,9,0.0,2.0,84,-99.99,,,-99.99,,2017-01-24 06:16:00,
2017-01-24 01:07:00,52.0,48.0,29.88,North,5,0.0,2.0,85,-99.99,,,-99.99,,2017-01-24 07:07:00,
2017-01-24 01:14:00,51.0,47.0,29.87,North,9,0.0,1.0,85,-99.99,,,-99.99,,2017-01-24 07:14:00,
2017-01-24 01:37:00,50.0,46.0,29.87,North,9,0.0,2.0,86,-99.99,,,-99.99,,2017-01-24 07:37:00,
2017-01-24 02:07:00,50.0,46.0,29.88,North,11,0.0,3.0,87,-99.99,,,-99.99,,2017-01-24 08:07:00,
2017-01-24 02:19:00,49.0,45.0,29.88,NNE,13,1.0,3.0,87,-99.99,,,-99.99,,2017-01-24 08:19:00,
2017-01-24 02:47:00,49.0,45.0,29.88,NNE,12,0.0,-999.0,87,-99.99,,,-99.99,,2017-01-24 08:47:00,
2017-01-24 03:09:00,48.0,45.0,29.89,NNE,12,0.0,0.0,88,-99.99,,,-99.99,,2017-01-24 09:09:00,
2017-01-24 03:16:00,48.0,45.0,29.89,NNE,12,0.0,0.0,88,-99.99,,,-99.99,,2017-01-24 09:16:00,
2017-01-24 03:25:00,47.0,44.0,29.90,North,11,0.0,3.0,89,-99.99,,,-99.99,,2017-01-24 09:25:00,
2017-01-24 04:04:00,47.0,44.0,29.91,North,11,0.0,1.0,90,-99.99,,,-99.99,,2017-01-24 10:04:00,
2017-01-24 04:14:00,46.0,43.0,29.91,North,11,0.0,1.0,90,-99.99,,,-99.99,,2017-01-24 10:14:00,
2017-01-24 04:47:00,46.0,43.0,29.91,North,11,0.0,0.0,90,-99.99,,,-99.99,,2017-01-24 10:47:00,
2017-01-24 05:24:00,45.0,43.0,29.92,North,11,0.0,1.0,92,-99.99,,,-99.99,,2017-01-24 11:24:00,
2017-01-24 06:08:00,44.0,42.0,29.93,North,11,0.0,2.0,92,-99.99,,,-99.99,,2017-01-24 12:08:00,
2017-01-24 06:17:00,44.0,42.0,29.93,North,11,0.0,2.0,92,-99.99,,,-99.99,,2017-01-24 12:17:00,
2017-01-24 06:37:00,43.0,41.0,29.93,North,11,0.0,1.0,92,-99.99,,,-99.99,,2017-01-24 12:37:00,
2017-01-24 07:07:00,42.0,40.0,29.94,North,11,0.0,0.0,92,-99.99,,,-99.99,,2017-01-24 13:07:00,
2017-01-24 07:16:00,42.0,40.0,29.94,North,11,0.0,0.0,92,-99.99,,,-99.99,,2017-01-24 13:16:00,
2017-01-24 07:27:00,42.0,40.0,29.95,North,11,0.0,0.0,93,-99.99,,,-99.99,,2017-01-24 13:27:00,
2017-01-24 08:06:00,44.0,42.0,29.97,NNE,21,1.0,4.0,94,-99.99,,,-99.99,,2017-01-24 14:06:00,
2017-01-24 08:15:00,44.0,42.0,29.97,NNE,21,1.0,4.0,94,-99.99,,,-99.99,,2017-01-24 14:15:00,
2017-01-24 08:25:00,45.0,43.0,29.98,North,355,2.0,4.0,93,-99.99,,,-99.99,,2017-01-24 14:25:00,
2017-01-24 08:38:00,46.0,43.0,29.98,NNE,24,4.0,9.0,89,-99.99,,,-99.99,,2017-01-24 14:38:00,
2017-01-24 09:07:00,48.0,43.0,29.99,NNE,30,2.0,6.0,84,-99.99,,,-99.99,,2017-01-24 15:07:00,
2017-01-24 09:15:00,48.0,43.0,29.99,NNE,30,2.0,6.0,84,-99.99,,,-99.99,,2017-01-24 15:15:00,
2017-01-24 10:06:00,50.0,44.0,29.99,East,80,5.0,9.0,79,-99.99,,,-99.99,,2017-01-24 16:06:00,
2017-01-24 10:14:00,51.0,44.0,30.00,East,81,1.0,7.0,77,-99.99,,,-99.99,,2017-01-24 16:14:00,
2017-01-24 12:14:00,59.0,45.0,29.96,East,92,3.0,6.0,59,-99.99,,,-99.99,,2017-01-24 18:14:00,
2017-01-24 13:08:00,63.0,45.0,29.92,NE,51,1.0,5.0,51,-99.99,,,-99.99,,2017-01-24 19:08:00,
2017-01-24 13:14:00,63.0,45.0,29.92,NE,51,1.0,5.0,51,-99.99,,,-99.99,,2017-01-24 19:14:00,
2017-01-24 13:25:00,63.0,44.0,29.92,East,87,1.0,5.0,49,-99.99,,,-99.99,,2017-01-24 19:25:00,
2017-01-24 13:48:00,64.0,44.0,29.92,ESE,107,0.0,3.0,48,-99.99,,,-99.99,,2017-01-24 19:48:00,
2017-01-24 14:07:00,67.0,46.0,29.91,West,261,1.0,5.0,47,-99.99,,,-99.99,,2017-01-24 20:07:00,
2017-01-24 14:16:00,67.0,46.0,29.91,West,261,1.0,5.0,47,-99.99,,,-99.99,,2017-01-24 20:16:00,
2017-01-24 14:36:00,68.0,47.0,29.91,WNW,303,1.0,5.0,47,-99.99,,,-99.99,,2017-01-24 20:36:00,
2017-01-24 14:46:00,68.0,47.0,29.91,WNW,303,1.0,5.0,47,-99.99,,,-99.99,,2017-01-24 20:46:00,
2017-01-24 14:57:00,68.0,47.0,29.91,WNW,303,1.0,5.0,47,-99.99,,,-99.99,,2017-01-24 20:57:00,
2017-01-24 15:16:00,67.0,52.0,29.92,West,274,3.0,7.0,58,-99.99,,,-99.99,,2017-01-24 21:16:00,
2017-01-24 16:16:00,64.0,52.0,29.93,SW,231,4.0,6.0,65,-99.99,,,-99.99,,2017-01-24 22:16:00,